createdAt,value
2023-07-03T00:00:20.228Z,77.54
2023-07-03T00:03:14.834Z,77.59
2023-07-03T00:05:46.513Z,77.65
2023-07-03T00:08:17.097Z,77.58
2023-07-03T00:10:45.012Z,77.65
2023-07-03T00:13:13.046Z,77.63
2023-07-03T00:15:41.150Z,77.79
2023-07-03T00:18:09.131Z,77.69
2023-07-03T00:20:37.335Z,77.79
2023-07-03T00:23:05.821Z,77.86
2023-07-03T00:25:33.783Z,77.86
2023-07-03T00:28:01.690Z,77.91
2023-07-03T00:30:29.640Z,77.88
2023-07-03T00:32:57.635Z,78.08
2023-07-03T00:35:25.712Z,78.24
2023-07-03T00:37:53.645Z,78.11
2023-07-03T00:40:21.597Z,77.98
2023-07-03T00:42:52.018Z,77.92
2023-07-03T00:45:21.640Z,77.79
2023-07-03T00:47:50.625Z,77.69
2023-07-03T00:50:19.250Z,77.66
2023-07-03T00:52:53.871Z,77.71
2023-07-03T00:55:24.044Z,77.38
2023-07-03T00:57:52.533Z,77.53
2023-07-03T01:00:22.535Z,77.48
2023-07-03T01:03:11.819Z,77.26
2023-07-03T01:05:46.688Z,77.51
2023-07-03T01:08:15.036Z,77.59
2023-07-03T01:10:44.788Z,77.57
2023-07-03T01:13:17.864Z,77.67
2023-07-03T01:15:47.846Z,77.71
2023-07-03T01:18:19.374Z,77.77
2023-07-03T01:21:07.794Z,77.89
2023-07-03T01:23:50.580Z,77.78
2023-07-03T01:26:20.366Z,77.76
2023-07-03T01:28:54.863Z,77.50
2023-07-03T01:31:24.643Z,77.48
2023-07-03T01:33:55.845Z,77.39
2023-07-03T01:36:24.790Z,77.40
2023-07-03T01:38:54.696Z,77.39
2023-07-03T01:41:23.439Z,77.16
2023-07-03T01:43:52.022Z,77.08
2023-07-03T01:46:20.375Z,76.98
2023-07-03T01:48:48.393Z,77.12
2023-07-03T01:51:26.057Z,76.97
2023-07-03T01:54:02.792Z,76.82
2023-07-03T01:56:36.220Z,76.92
2023-07-03T01:59:11.249Z,77.00
2023-07-03T02:01:56.708Z,76.99
2023-07-03T02:04:33.962Z,77.03
2023-07-03T02:07:04.822Z,77.17
2023-07-03T02:09:33.640Z,77.11
2023-07-03T02:12:07.158Z,77.13
2023-07-03T02:14:36.373Z,77.11
2023-07-03T02:17:07.544Z,77.14
2023-07-03T02:19:36.285Z,77.16
2023-07-03T02:22:04.716Z,77.12
2023-07-03T02:24:33.576Z,77.06
2023-07-03T02:27:01.620Z,76.96
2023-07-03T02:29:32.255Z,77.06
2023-07-03T02:32:00.241Z,77.19
2023-07-03T02:34:29.497Z,77.07
2023-07-03T02:37:00.172Z,77.12
2023-07-03T02:39:30.579Z,77.12
2023-07-03T02:41:58.713Z,77.13
2023-07-03T02:44:27.272Z,76.98
2023-07-03T02:46:55.306Z,77.05
2023-07-03T02:49:29.008Z,77.06
2023-07-03T02:51:58.136Z,77.24
2023-07-03T02:54:26.171Z,77.15
2023-07-03T02:56:54.266Z,77.12
2023-07-03T02:59:23.041Z,77.34
2023-07-03T03:01:51.603Z,77.31
2023-07-03T03:04:20.351Z,77.32
2023-07-03T03:06:48.857Z,77.47
2023-07-03T03:09:16.778Z,77.50
2023-07-03T03:11:44.761Z,77.41
2023-07-03T03:14:14.408Z,77.59
2023-07-03T03:16:42.428Z,77.48
2023-07-03T03:19:10.605Z,77.61
2023-07-03T03:21:39.557Z,78.03
2023-07-03T03:24:07.940Z,77.86
2023-07-03T03:26:35.861Z,77.79
2023-07-03T03:29:03.893Z,77.88
2023-07-03T03:31:32.182Z,77.94
2023-07-03T03:34:03.531Z,77.78
2023-07-03T03:36:34.348Z,77.85
2023-07-03T03:39:02.548Z,78.03
2023-07-03T03:41:31.474Z,78.27
2023-07-03T03:43:59.598Z,78.17
2023-07-03T03:46:27.540Z,78.56
2023-07-03T03:48:56.735Z,78.54
2023-07-03T03:51:25.606Z,78.68
2023-07-03T03:53:54.431Z,78.83
2023-07-03T03:56:22.942Z,78.72
2023-07-03T03:58:51.581Z,78.86
2023-07-03T04:01:19.819Z,78.96
2023-07-03T04:03:47.894Z,79.04
2023-07-03T04:06:20.265Z,79.33
2023-07-03T04:08:48.848Z,79.66
2023-07-03T04:11:16.798Z,79.70
2023-07-03T04:13:44.824Z,79.61
2023-07-03T04:16:13.670Z,80.00
2023-07-03T04:18:41.979Z,79.61
2023-07-03T04:21:10.153Z,79.45
2023-07-03T04:23:38.624Z,79.59
2023-07-03T04:26:06.860Z,79.49
2023-07-03T04:28:35.301Z,79.52
2023-07-03T04:31:03.909Z,79.64
2023-07-03T04:33:31.942Z,79.75
2023-07-03T04:36:00.028Z,79.70
2023-07-03T04:38:28.179Z,79.83
2023-07-03T04:40:58.867Z,79.91
2023-07-03T04:43:26.818Z,79.96
2023-07-03T04:45:57.419Z,80.11
2023-07-03T04:48:25.892Z,80.33
2023-07-03T04:50:53.830Z,80.37
2023-07-03T04:53:22.655Z,80.55
2023-07-03T04:55:52.252Z,80.64
2023-07-03T05:08:28.550Z,80.47
2023-07-03T05:10:56.549Z,80.38
2023-07-03T05:13:24.524Z,80.55
2023-07-03T05:15:52.818Z,80.48
2023-07-03T05:18:21.556Z,80.39
2023-07-03T05:20:50.437Z,80.55
2023-07-03T05:23:18.655Z,80.51
2023-07-03T05:25:47.731Z,80.19
2023-07-03T05:28:15.804Z,80.04
2023-07-03T05:30:43.980Z,79.81
2023-07-03T05:33:12.209Z,79.58
2023-07-03T05:35:49.722Z,79.27
2023-07-03T05:38:20.225Z,79.11
2023-07-03T05:40:51.364Z,78.56
2023-07-03T05:43:19.978Z,77.52
2023-07-03T05:45:49.868Z,77.20
2023-07-03T05:48:18.862Z,77.11
2023-07-03T05:50:46.921Z,76.86
2023-07-03T05:53:15.016Z,76.35
2023-07-03T05:55:44.762Z,75.83
2023-07-03T05:58:12.747Z,75.49
2023-07-03T06:00:41.427Z,74.41
2023-07-03T06:03:12.545Z,73.71
2023-07-03T06:05:40.816Z,72.38
2023-07-03T06:08:08.963Z,72.52
2023-07-03T06:10:36.962Z,72.42
2023-07-03T06:13:05.522Z,71.30
2023-07-03T06:15:35.810Z,70.35
2023-07-03T06:18:04.857Z,70.39
2023-07-03T06:20:34.555Z,69.94
2023-07-03T06:23:02.605Z,67.75
2023-07-03T06:25:30.711Z,68.05
2023-07-03T06:27:58.611Z,67.84
2023-07-03T06:30:26.781Z,68.20
2023-07-03T06:32:55.900Z,67.04
2023-07-03T06:35:24.185Z,67.09
2023-07-03T06:37:57.264Z,65.85
2023-07-03T06:40:26.748Z,65.60
2023-07-03T06:42:54.899Z,65.23
2023-07-03T06:45:23.137Z,64.98
2023-07-03T06:47:51.493Z,64.20
2023-07-03T06:50:19.476Z,63.75
2023-07-03T06:52:48.489Z,61.80
2023-07-03T06:55:16.567Z,63.45
2023-07-03T06:57:46.753Z,64.02
2023-07-03T07:00:15.097Z,63.62
2023-07-03T07:02:43.130Z,61.77
2023-07-03T07:05:11.402Z,61.07
2023-07-03T07:07:39.749Z,62.63
2023-07-03T07:10:10.913Z,62.85
2023-07-03T07:12:39.060Z,61.47
2023-07-03T07:15:08.260Z,61.27
2023-07-03T07:20:10.871Z,61.58
2023-07-03T07:22:41.023Z,61.24
2023-07-03T07:25:09.505Z,61.08
2023-07-03T07:27:38.695Z,59.05
2023-07-03T07:30:07.475Z,57.94
2023-07-03T07:32:35.670Z,58.65
2023-07-03T07:35:03.860Z,56.85
2023-07-03T07:37:31.913Z,56.19
2023-07-03T07:39:59.827Z,55.10
2023-07-03T07:42:30.436Z,57.90
2023-07-03T07:44:58.615Z,57.38
2023-07-03T07:47:26.569Z,56.59
2023-07-03T07:49:54.529Z,56.49
2023-07-03T07:52:25.076Z,55.21
2023-07-03T07:54:57.731Z,55.76
2023-07-03T07:57:27.149Z,55.35
2023-07-03T07:59:55.146Z,53.90
2023-07-03T08:02:23.300Z,55.08
2023-07-03T08:04:53.396Z,53.67
2023-07-03T08:07:24.255Z,54.91
2023-07-03T08:09:52.182Z,53.71
2023-07-03T08:12:20.352Z,54.48
2023-07-03T08:14:48.365Z,54.15
2023-07-03T08:17:16.673Z,53.96
2023-07-03T08:19:44.578Z,53.58
2023-07-03T08:22:12.513Z,52.59
2023-07-03T08:24:41.347Z,52.95
2023-07-03T08:27:10.202Z,52.36
2023-07-03T08:29:38.122Z,52.86
2023-07-03T08:32:10.740Z,51.96
2023-07-03T08:34:38.803Z,51.77
2023-07-03T08:37:08.669Z,51.61
2023-07-03T08:39:40.234Z,51.64
2023-07-03T08:42:23.112Z,51.76
2023-07-03T08:44:52.232Z,52.25
2023-07-03T08:47:27.441Z,52.29
2023-07-03T08:49:56.670Z,52.74
2023-07-03T08:52:45.986Z,52.40
2023-07-03T08:55:19.701Z,52.17
2023-07-03T08:57:47.734Z,52.11
2023-07-03T09:00:18.976Z,52.22
2023-07-03T09:03:10.460Z,51.53
2023-07-03T09:06:05.799Z,51.96
2023-07-03T09:08:47.073Z,51.23
2023-07-03T09:11:18.334Z,49.70
2023-07-03T09:13:51.335Z,49.90
2023-07-03T09:16:24.897Z,49.75
2023-07-03T09:18:59.105Z,49.89
2023-07-03T09:21:29.526Z,48.60
2023-07-03T09:24:04.453Z,48.42
2023-07-03T09:26:41.243Z,48.35
2023-07-03T09:29:11.663Z,48.89
2023-07-03T09:31:40.774Z,48.42
2023-07-03T09:34:09.835Z,48.22
2023-07-03T09:36:41.580Z,48.13
2023-07-03T09:39:13.100Z,46.68
2023-07-03T09:41:42.038Z,47.65
2023-07-03T09:44:14.902Z,47.90
2023-07-03T09:46:43.315Z,48.19
2023-07-03T09:49:22.617Z,47.76
2023-07-03T09:51:52.800Z,47.33
2023-07-03T09:54:23.435Z,46.30
2023-07-03T09:56:51.414Z,45.94
2023-07-03T09:59:20.849Z,45.44
2023-07-03T10:07:08.196Z,46.54
2023-07-03T10:12:24.008Z,46.76
2023-07-03T10:15:14.753Z,46.99
2023-07-03T10:17:48.667Z,46.92
2023-07-03T10:20:26.367Z,46.30
2023-07-03T10:22:59.655Z,46.45
2023-07-03T10:25:42.712Z,46.55
2023-07-03T10:28:19.136Z,46.72
2023-07-03T10:30:53.666Z,46.73
2023-07-03T10:33:28.464Z,47.13
2023-07-03T10:35:57.167Z,47.68
2023-07-03T10:38:38.135Z,47.49
2023-07-03T10:41:16.022Z,47.16
2023-07-03T10:43:52.619Z,46.99
2023-07-03T10:46:47.826Z,46.23
2023-07-03T10:49:25.266Z,46.52
2023-07-03T10:52:14.858Z,46.54
2023-07-03T10:54:53.028Z,46.51
2023-07-03T10:57:34.589Z,47.10
2023-07-03T11:00:13.544Z,46.77
2023-07-03T11:03:00.300Z,46.76
2023-07-03T11:05:43.108Z,46.43
2023-07-03T11:08:37.401Z,46.05
2023-07-03T11:11:18.867Z,45.66
2023-07-03T11:14:03.580Z,46.06
2023-07-03T11:16:59.236Z,45.66
2023-07-03T11:19:53.222Z,45.98
2023-07-03T11:25:17.920Z,45.77
2023-07-03T11:30:26.955Z,46.01
2023-07-03T11:32:58.530Z,46.19
2023-07-03T11:41:00.157Z,46.45
2023-07-03T11:43:33.375Z,45.44
2023-07-03T11:46:05.565Z,45.30
2023-07-03T11:48:43.655Z,45.27
2023-07-03T11:51:21.686Z,45.27
2023-07-03T11:53:54.756Z,45.83
2023-07-03T11:56:31.990Z,45.89
2023-07-03T11:59:30.468Z,45.47
2023-07-03T12:02:20.086Z,45.31
2023-07-03T12:04:53.986Z,45.19
2023-07-03T12:08:23.471Z,44.89
2023-07-03T12:10:50.044Z,45.11
2023-07-03T12:13:42.131Z,45.53
2023-07-03T12:16:30.880Z,46.12
2023-07-03T12:19:07.021Z,45.83
2023-07-03T12:21:37.644Z,46.35
2023-07-03T12:24:19.965Z,45.59
2023-07-03T12:27:02.364Z,45.52
2023-07-03T12:29:31.507Z,45.87
2023-07-03T12:32:08.321Z,46.26
2023-07-03T12:34:40.130Z,46.19
2023-07-03T12:37:15.858Z,46.62
2023-07-03T12:39:43.851Z,46.58
2023-07-03T12:42:14.712Z,46.81
2023-07-03T12:44:41.497Z,46.87
2023-07-03T12:47:10.900Z,46.81
2023-07-03T12:49:54.538Z,47.08
2023-07-03T12:52:25.948Z,46.59
2023-07-03T12:55:01.673Z,47.16
2023-07-03T12:57:38.276Z,47.15
2023-07-03T13:00:07.045Z,47.14
2023-07-03T13:02:36.038Z,47.37
2023-07-03T13:05:07.708Z,47.56
2023-07-03T13:07:35.280Z,48.02
2023-07-03T13:10:12.318Z,48.00
2023-07-03T13:12:39.295Z,48.07
2023-07-03T13:15:31.617Z,48.39
2023-07-03T13:18:08.124Z,48.61
2023-07-03T13:20:35.449Z,48.59
2023-07-03T13:23:05.846Z,47.94
2023-07-03T13:25:37.080Z,47.70
2023-07-03T13:37:25.518Z,46.96
2023-07-03T13:40:01.024Z,47.12
2023-07-03T13:42:31.446Z,47.08
2023-07-03T13:44:59.590Z,46.71
2023-07-03T13:47:29.346Z,46.53
2023-07-03T13:49:58.081Z,46.59
2023-07-03T13:52:26.069Z,46.54
2023-07-03T13:54:54.069Z,46.75
2023-07-03T13:57:22.127Z,47.03
2023-07-03T13:59:50.069Z,46.71
2023-07-03T14:02:18.129Z,46.57
2023-07-03T14:04:46.278Z,46.66
2023-07-03T14:07:14.246Z,47.00
2023-07-03T14:09:42.288Z,47.32
2023-07-03T14:12:10.240Z,47.24
2023-07-03T14:14:38.221Z,47.22
2023-07-03T14:17:06.375Z,47.14
2023-07-03T14:19:35.189Z,47.16
2023-07-03T14:22:03.279Z,47.53
2023-07-03T14:24:31.459Z,47.28
2023-07-03T14:27:01.198Z,47.26
2023-07-03T14:29:29.417Z,47.21
2023-07-03T14:31:58.246Z,46.82
2023-07-03T14:34:26.921Z,47.07
2023-07-03T14:36:54.902Z,47.44
2023-07-03T14:39:22.896Z,47.31
2023-07-03T14:41:50.996Z,46.89
2023-07-03T14:44:19.413Z,47.02
2023-07-03T14:46:47.465Z,46.88
2023-07-03T14:49:15.781Z,47.16
2023-07-03T14:51:43.816Z,47.26
2023-07-03T14:54:11.980Z,47.11
2023-07-03T14:56:40.573Z,47.39
2023-07-03T14:59:08.595Z,47.50
2023-07-03T15:01:44.523Z,47.11
2023-07-03T15:04:13.382Z,46.92
2023-07-03T15:06:50.866Z,47.10
2023-07-03T15:09:18.900Z,47.47
2023-07-03T15:11:50.537Z,47.59
2023-07-03T15:14:19.210Z,47.56
2023-07-03T15:16:47.158Z,47.38
2023-07-03T15:19:15.209Z,47.64
2023-07-03T15:21:43.156Z,47.71
2023-07-03T15:24:11.180Z,47.70
2023-07-03T15:26:42.066Z,47.76
2023-07-03T15:29:12.730Z,47.94
2023-07-03T15:31:42.407Z,48.21
2023-07-03T15:34:10.628Z,48.54
2023-07-03T15:36:38.644Z,48.62
2023-07-03T15:39:07.581Z,49.10
2023-07-03T15:41:35.692Z,48.91
2023-07-03T15:44:03.987Z,48.73
2023-07-03T15:46:33.820Z,48.81
2023-07-03T15:49:01.833Z,48.89
2023-07-03T15:51:32.807Z,48.87
2023-07-03T15:54:01.639Z,48.88
2023-07-03T15:56:31.887Z,48.89
2023-07-03T15:59:04.498Z,48.77
2023-07-03T16:01:32.641Z,48.55
2023-07-03T16:04:01.904Z,48.89
2023-07-03T16:06:34.688Z,49.28
2023-07-03T16:09:03.539Z,49.17
2023-07-03T16:11:38.223Z,49.29
2023-07-03T16:14:06.307Z,49.31
2023-07-03T16:16:34.296Z,49.57
2023-07-03T16:19:04.524Z,49.76
2023-07-03T16:21:34.721Z,49.80
2023-07-03T16:24:04.735Z,50.01
2023-07-03T16:26:32.919Z,49.79
2023-07-03T16:29:01.073Z,49.84
2023-07-03T16:31:30.870Z,49.82
2023-07-03T16:34:01.052Z,49.90
2023-07-03T16:36:31.514Z,49.97
2023-07-03T16:39:03.788Z,50.05
2023-07-03T16:41:35.926Z,50.02
2023-07-03T16:44:03.942Z,50.17
2023-07-03T16:46:32.028Z,50.09
2023-07-03T16:49:00.784Z,50.39
2023-07-03T16:51:29.177Z,50.39
2023-07-03T16:53:57.690Z,50.23
2023-07-03T16:56:30.267Z,50.43
2023-07-03T16:58:59.141Z,50.51
2023-07-03T17:01:29.518Z,50.63
2023-07-03T17:03:58.234Z,50.63
2023-07-03T17:06:32.884Z,50.89
2023-07-03T17:09:02.494Z,50.73
2023-07-03T17:11:31.504Z,50.86
2023-07-03T17:14:00.888Z,50.94
2023-07-03T17:16:30.621Z,50.95
2023-07-03T17:18:58.778Z,51.11
2023-07-03T17:21:26.865Z,51.17
2023-07-03T17:24:03.725Z,51.22
2023-07-03T17:26:35.243Z,51.19
2023-07-03T17:29:04.926Z,51.26
2023-07-03T17:31:33.711Z,51.20
2023-07-03T17:34:01.881Z,51.20
2023-07-03T17:36:30.129Z,51.33
2023-07-03T17:38:58.197Z,51.25
2023-07-03T17:41:26.451Z,51.40
2023-07-03T17:43:54.368Z,51.51
2023-07-03T17:46:22.440Z,51.61
2023-07-03T17:48:51.106Z,51.66
2023-07-03T17:51:19.116Z,51.70
2023-07-03T17:53:48.515Z,51.78
2023-07-03T17:56:16.514Z,51.83
2023-07-03T17:58:44.747Z,52.09
2023-07-03T18:01:16.760Z,52.28
2023-07-03T18:03:47.834Z,52.42
2023-07-03T18:06:15.983Z,52.63
2023-07-03T18:08:43.983Z,52.83
2023-07-03T18:11:13.925Z,53.07
2023-07-03T18:13:43.682Z,53.23
2023-07-03T18:16:11.723Z,53.42
2023-07-03T18:18:39.981Z,53.76
2023-07-03T18:21:08.093Z,53.96
2023-07-03T18:23:36.136Z,54.23
2023-07-03T18:26:04.266Z,54.38
2023-07-03T18:28:32.419Z,54.61
2023-07-03T18:31:03.221Z,54.77
2023-07-03T18:33:33.298Z,54.85
2023-07-03T18:36:03.823Z,55.00
2023-07-03T18:38:32.334Z,55.17
2023-07-03T18:41:04.733Z,55.36
2023-07-03T18:43:32.787Z,55.61
2023-07-03T18:46:00.856Z,55.68
2023-07-03T18:48:29.390Z,55.71
2023-07-03T18:50:57.342Z,55.93
2023-07-03T18:53:25.797Z,56.08
2023-07-03T18:55:54.042Z,56.14
2023-07-03T18:58:22.281Z,56.15
2023-07-03T19:00:50.515Z,56.17
2023-07-03T19:03:20.377Z,56.21
2023-07-03T19:05:50.263Z,56.19
2023-07-03T19:08:19.241Z,56.28
2023-07-03T19:10:47.897Z,56.34
2023-07-03T19:13:15.965Z,56.21
2023-07-03T19:15:44.811Z,56.23
2023-07-03T19:18:15.070Z,56.21
2023-07-03T19:20:43.214Z,56.39
2023-07-03T19:23:14.782Z,56.48
2023-07-03T19:25:43.256Z,56.64
2023-07-03T19:28:11.347Z,56.63
2023-07-03T19:30:39.293Z,56.66
2023-07-03T19:33:07.439Z,56.84
2023-07-03T19:35:37.725Z,56.77
2023-07-03T19:38:09.338Z,56.84
2023-07-03T19:40:39.017Z,56.83
2023-07-03T19:43:07.767Z,56.79
2023-07-03T19:45:37.054Z,56.82
2023-07-03T19:48:06.900Z,56.86
2023-07-03T19:50:38.130Z,56.95
2023-07-03T19:53:08.563Z,56.90
2023-07-03T19:55:37.861Z,56.87
2023-07-03T19:58:06.159Z,56.93
2023-07-03T20:00:34.370Z,56.87
2023-07-03T20:03:03.960Z,56.91
2023-07-03T20:05:36.290Z,56.88
2023-07-03T20:08:04.433Z,56.96
2023-07-03T20:10:32.371Z,56.85
2023-07-03T20:13:00.718Z,57.04
2023-07-03T20:15:28.687Z,57.32
2023-07-03T20:17:57.235Z,57.25
2023-07-03T20:20:25.790Z,56.92
2023-07-03T20:22:53.827Z,56.76
2023-07-03T20:25:21.883Z,56.89
2023-07-03T20:27:51.376Z,56.70
2023-07-03T20:30:19.536Z,56.81
2023-07-03T20:32:49.166Z,56.93
2023-07-03T20:35:17.500Z,56.81
2023-07-03T20:37:45.438Z,56.62
2023-07-03T20:40:14.400Z,56.23
2023-07-03T20:42:42.390Z,55.94
2023-07-03T20:45:10.571Z,55.98
2023-07-03T20:47:38.663Z,55.93
2023-07-03T20:50:07.612Z,56.11
2023-07-03T20:52:41.053Z,56.19
2023-07-03T20:55:36.694Z,56.11
2023-07-03T20:58:04.831Z,55.86
2023-07-03T21:00:32.799Z,55.48
2023-07-03T21:03:00.951Z,55.31
2023-07-03T21:05:29.339Z,55.13
2023-07-03T21:07:57.828Z,55.02
2023-07-03T21:10:25.905Z,55.07
2023-07-03T21:12:54.376Z,54.97
2023-07-03T21:15:23.129Z,55.06
2023-07-03T21:18:00.947Z,55.06
2023-07-03T21:20:43.649Z,55.12
2023-07-03T21:23:11.805Z,55.03
2023-07-03T21:25:39.806Z,54.74
2023-07-03T21:28:07.858Z,54.60
2023-07-03T21:30:41.999Z,54.44
2023-07-03T21:33:11.727Z,54.37
2023-07-03T21:35:40.065Z,54.40
2023-07-03T21:38:07.990Z,54.22
2023-07-03T21:40:35.933Z,54.10
2023-07-03T21:43:03.918Z,54.07
2023-07-03T21:45:34.149Z,54.00
2023-07-03T21:48:02.251Z,53.93
2023-07-03T21:50:30.382Z,54.14
2023-07-03T21:52:58.457Z,54.45
2023-07-03T21:55:26.361Z,54.29
2023-07-03T21:57:54.423Z,54.51
2023-07-03T22:00:22.362Z,54.28
2023-07-03T22:02:50.657Z,54.32
2023-07-03T22:05:18.850Z,54.25
2023-07-03T22:07:49.096Z,54.30
2023-07-03T22:10:17.379Z,54.37
2023-07-03T22:12:45.359Z,54.38
2023-07-03T22:15:13.372Z,54.53
2023-07-03T22:17:41.405Z,54.41
2023-07-03T22:20:10.128Z,54.85
2023-07-03T22:22:38.679Z,55.23
2023-07-03T22:25:08.185Z,55.43
2023-07-03T22:27:36.278Z,55.60
2023-07-03T22:30:04.639Z,55.61
2023-07-03T22:32:32.655Z,55.56
2023-07-03T22:35:00.726Z,55.49
2023-07-03T22:37:28.929Z,55.66
2023-07-03T22:39:57.007Z,55.82
2023-07-03T22:42:25.044Z,55.79
2023-07-03T22:44:53.042Z,55.81
2023-07-03T22:47:21.130Z,55.61
2023-07-03T22:49:49.133Z,55.68
2023-07-03T22:52:17.075Z,55.61
2023-07-03T22:54:48.186Z,55.54
2023-07-03T22:57:16.121Z,55.41
2023-07-03T22:59:44.333Z,55.43
2023-07-03T23:02:14.393Z,55.36
2023-07-03T23:04:42.742Z,55.38
2023-07-03T23:07:10.699Z,55.44
2023-07-03T23:09:40.210Z,55.30
2023-07-03T23:12:09.823Z,55.35
2023-07-03T23:14:37.839Z,55.40
2023-07-03T23:17:06.279Z,55.30
2023-07-03T23:19:34.940Z,55.36
2023-07-03T23:22:03.096Z,55.36
2023-07-03T23:24:31.034Z,55.46
2023-07-03T23:26:59.200Z,55.48
2023-07-03T23:29:27.234Z,55.53
2023-07-03T23:31:55.641Z,55.54
2023-07-03T23:34:23.942Z,55.67
2023-07-03T23:36:52.179Z,55.98
2023-07-03T23:39:21.206Z,55.98
2023-07-03T23:41:49.589Z,55.95
2023-07-03T23:44:17.493Z,55.80
2023-07-03T23:46:45.546Z,55.72
2023-07-03T23:49:13.543Z,55.77
2023-07-03T23:51:41.830Z,55.78
2023-07-03T23:54:10.863Z,55.80
2023-07-03T23:56:39.480Z,55.89
2023-07-03T23:59:08.076Z,55.89
